Aérodrome :
LOGIN :

S'inscrire | Disclaimer

   EN    FR    IT 

 










Légende :    VFR   VFR Marginal   IFR   IFR Intensif   IFR Très Intensif
Visi : 
Plafond : 
>= 8 km
>= 3000ft
5 à 8 km
1000 à 3000 ft
1500m à 5 km
500 à 1000 ft
800 à 1500m
200 à 500 ft
< 800m
< 200 ft
Symboles :   Orages  Brouillard  Fortes neiges  Fortes précipitations  Vent > 20 kt
SIGMETs :   Divers  Orages  Givrage  Turbulence  Onde Orograph.  Cendres Volcan.







- Altitude de l'aérodrome : 1 ft
- Voir les cartes d'approche


EGCK - Caernarfon

DERNIER METAR :
  • 141220Z 24025KT 9999 SCT018 BKN023 BKN035 07/03 Q0987

METARs EXPIRÉS :
  • 141150Z 23022KT 9999 SCT019 BKN027 07/03 Q0987
  • 141120Z 24020KT 9999 FEW018 BKN028 06/03 Q0988
  • 141050Z 24023KT 9999 SCT020 BKN028 06/03 Q0988
  • 141020Z 25022G34KT 9999 SCT019 BKN028 06/02 Q0988
  • 140950Z 24022KT 9999 SCT019 BKN035 06/02 Q0988

TAF TAF EGCK
Valide du 14 à 12h jusqu'au 14 à 21h UTC


141108Z 1412/1421 26025G36KT 9999 SCT020
BECMG 1413/1416 32020G30KT
TEMPO 1413/1421 6000 SHRA BKN014
PROB30
TEMPO 1413/1421 4000 +SHRAGS BKN008 SCT025CB
Pas de NOTAMs connus pour ce terrain.
1 SIGMET publié pour la FIR London (EGTT) :
 
Turbulence forte
EGTT SIGMET 03 VALID 141100/141500 EGRR
EGTT LONDON FIR SEV TURB FCST SW OF LINE N5000 W00019 - N5153 W00620 SFC/FL060 STNR NC=



MET'MAP, la Météo Aéronautique d'un coup d'oeil ! - Copyright ORBIFLY Décembre 2007 - Disclaimer

ORBIFLY MET'MAP TEAM :

Programmation & Développement : Alexandra Zaïnal
Conception & Développement : Baudouin d'Aumeries
Co-Programmation & Développement : Marc-Olivier Méhu
Soutien technique & logistique : Manuel Goepfert

Contact : metmap@orbifly.com




SOURCES & CREDITS :

   NOAA